Chesterville, Illinois
Current Conditions -  °F | °C
As of 11:53 PM on Monday 20 Oct 2014 (Local Time) from KMTO Reporting Station
Scattered Clouds Scattered Clouds  
Wind Chill: 51°   Ceiling: Unl
Heat Index: 51°   Visibility: 10mi
Dew Point: 44°   Wind: 6mph
Humidity: 77%   Direction: 360°N
Pressure: 29.99"   Gusts: NA
Location:  39.7005°N, 88.4541°W
Report Text: KMTO 210453Z AUTO 36005KT 10SM SCT060 11/07 A2999 RMK AO2 SLP155 T01060067
Loading
Personal Weather Stations






























Interactive Weather Map
Tropical Storm Tracking
New forecast layout! Learn more

10-Day Weather Forecast

Advertisements
Track Severe Weather on mobile